Time;durP1;ratioP1;P1;durP2;ratioP2;P2;SDS_P1;SDS_P2;PMS_P1;PMS_P2;Temp;Humidity;BMP_temperature;BMP_pressure;BME280_temperature;BME280_humidity;BME280_pressure;Samples;Min_cycle;Max_cycle;Signal;HPM_P1;HPM_P2
2020/12/29 00:01:43;;;;;;;0.80;0.80;;;;;;;9.01;70.27;97109.91;4347372;32;34697;-85
2020/12/29 00:04:22;;;;;;;5.20;0.50;;;;;;;8.84;70.93;97108.59;4371160;32;34689;-86
2020/12/29 00:06:57;;;;;;;1.48;0.90;;;;;;;8.84;71.42;97110.41;4359579;32;34631;-89
2020/12/29 00:09:45;;;;;;;0.25;0.17;;;;;;;8.75;72.00;97116.91;4350903;32;33561;-86
2020/12/29 00:12:12;;;;;;;1.30;1.10;;;;;;;8.63;72.70;97116.66;4358603;32;35507;-89
2020/12/29 00:14:41;;;;;;;1.75;0.75;;;;;;;8.70;73.06;97122.81;4383233;32;34628;-87
2020/12/29 00:17:24;;;;;;;0.52;0.52;;;;;;;8.56;73.88;97120.28;4370368;32;31764;-85
2020/12/29 00:20:07;;;;;;;0.85;0.40;;;;;;;8.44;74.59;97121.84;4360639;32;33771;-86
2020/12/29 00:22:43;;;;;;;1.65;0.47;;;;;;;8.78;73.96;97129.75;4371764;32;35956;-86
2020/12/29 00:25:17;;;;;;;0.50;0.50;;;;;;;8.68;74.18;97116.06;4370129;32;35099;-85
2020/12/29 00:28:00;;;;;;;1.00;0.43;;;;;;;8.78;73.64;97114.69;4370898;32;33422;-85
2020/12/29 00:30:31;;;;;;;1.58;1.48;;;;;;;8.40;75.28;97119.78;4358679;32;33458;-86
2020/12/29 00:32:58;;;;;;;0.80;0.80;;;;;;;8.72;74.05;97126.06;4370490;32;35194;-89
2020/12/29 00:35:34;;;;;;;0.68;0.68;;;;;;;8.75;73.65;97122.22;4357735;32;33628;-85
2020/12/29 00:38:05;;;;;;;0.20;0.20;;;;;;;8.55;75.12;97127.44;4358950;32;33059;-84
2020/12/29 00:40:32;;;;;;;3.43;1.50;;;;;;;8.73;74.02;97126.91;4370630;32;34595;-86
2020/12/29 00:43:00;;;;;;;2.10;1.37;;;;;;;8.58;74.93;97115.59;4358144;32;34517;-84
2020/12/29 00:45:27;;;;;;;1.57;0.87;;;;;;;8.71;74.13;97113.03;4382882;32;32726;-85
2020/12/29 00:47:58;;;;;;;1.83;1.00;;;;;;;8.49;74.90;97128.22;4382495;32;32929;-89
2020/12/29 00:50:27;;;;;;;1.33;1.25;;;;;;;8.41;75.36;97124.91;4370275;32;34018;-86
2020/12/29 00:52:54;;;;;;;0.75;0.50;;;;;;;8.04;76.87;97125.25;4358586;32;34556;-84
2020/12/29 00:55:22;;;;;;;0.62;0.45;;;;;;;8.06;76.97;97173.53;4372077;32;34760;-85
2020/12/29 00:57:50;;;;;;;0.52;0.52;;;;;;;8.01;76.07;97167.97;4357981;32;32163;-85
2020/12/29 01:00:17;;;;;;;1.42;0.90;;;;;;;8.40;73.77;97165.63;4358441;32;32584;-86
2020/12/29 01:02:47;;;;;;;0.98;0.98;;;;;;;8.33;74.07;97167.44;4382806;32;34709;-86
2020/12/29 01:05:16;;;;;;;0.90;0.50;;;;;;;8.19;75.33;97172.84;4382728;32;33798;-85
2020/12/29 01:07:45;;;;;;;0.55;0.55;;;;;;;8.71;73.63;97169.50;4358035;32;33229;-86
2020/12/29 01:10:14;;;;;;;0.50;0.50;;;;;;;8.39;74.80;97173.78;4357876;32;33027;-86
2020/12/29 01:12:45;;;;;;;0.80;0.80;;;;;;;8.60;74.09;97172.69;4370618;32;33592;-86
2020/12/29 01:15:14;;;;;;;0.80;0.80;;;;;;;8.50;74.85;97180.19;4394629;32;33728;-86
2020/12/29 01:17:49;;;;;;;0.20;0.13;;;;;;;8.55;74.74;97182.25;4371553;32;34307;-85
2020/12/29 01:20:16;;;;;;;0.73;0.73;;;;;;;8.22;76.06;97175.09;4382884;32;33708;-87
2020/12/29 01:22:44;;;;;;;3.90;0.75;;;;;;;8.17;76.49;97186.22;4382634;32;35659;-85
2020/12/29 01:25:14;;;;;;;1.40;1.17;;;;;;;8.52;74.62;97193.25;4382553;32;33170;-85
2020/12/29 01:27:41;;;;;;;1.65;1.17;;;;;;;8.47;75.43;97200.16;4371359;32;33633;-85
2020/12/29 01:30:08;;;;;;;2.42;0.70;;;;;;;8.53;75.27;97203.63;4394247;32;33374;-86
2020/12/29 01:32:37;;;;;;;0.88;0.85;;;;;;;8.58;75.23;97211.00;4370051;32;34244;-87
2020/12/29 01:35:05;;;;;;;0.65;0.52;;;;;;;8.83;74.17;97209.53;4370192;32;33492;-86
2020/12/29 01:37:42;;;;;;;1.15;0.93;;;;;;;8.90;74.03;97213.03;4381682;32;32790;-85
2020/12/29 01:40:10;;;;;;;2.15;1.62;;;;;;;8.44;75.85;97223.34;4369565;32;33189;-86
2020/12/29 01:42:38;;;;;;;1.37;0.75;;;;;;;8.18;76.78;97211.69;4357327;32;33651;-85
2020/12/29 01:45:10;;;;;;;0.73;0.73;;;;;;;8.12;77.22;97209.00;4365016;32;32781;-87
2020/12/29 01:47:38;;;;;;;0.88;0.40;;;;;;;8.29;76.89;97213.84;4372389;32;32506;-86
2020/12/29 01:50:18;;;;;;;0.77;0.40;;;;;;;8.48;76.54;97207.88;4372790;32;33976;-85
2020/12/29 01:52:53;;;;;;;1.37;1.27;;;;;;;8.47;76.16;97218.69;4372361;32;34250;-85
2020/12/29 01:55:21;;;;;;;2.67;1.02;;;;;;;8.45;76.25;97213.56;4372348;32;33935;-85
2020/12/29 01:57:50;;;;;;;1.95;1.05;;;;;;;8.62;76.13;97221.00;4384642;32;31940;-86
2020/12/29 02:00:17;;;;;;;0.37;0.30;;;;;;;8.63;75.97;97229.81;4372268;32;33549;-86
2020/12/29 02:02:45;;;;;;;4.62;1.15;;;;;;;8.36;77.25;97233.28;4372321;32;34945;-86
2020/12/29 02:05:13;;;;;;;0.77;0.77;;;;;;;8.81;75.40;97217.66;4372369;32;34801;-86
2020/12/29 02:07:57;;;;;;;1.67;1.55;;;;;;;8.38;77.12;97212.69;4360893;32;33230;-88
2020/12/29 02:10:25;;;;;;;1.25;1.15;;;;;;;8.75;75.27;97218.47;4372420;32;34371;-86
2020/12/29 02:12:56;;;;;;;0.50;0.50;;;;;;;8.80;75.22;97223.19;4372627;32;34120;-88
2020/12/29 02:15:25;;;;;;;1.23;0.70;;;;;;;8.90;74.52;97218.34;4362228;32;34128;-88
2020/12/29 02:17:53;;;;;;;1.02;0.95;;;;;;;8.59;75.29;97229.38;4357424;32;33233;-86
2020/12/29 02:20:22;;;;;;;0.98;0.88;;;;;;;8.53;75.66;97232.78;4358485;32;33336;-86
2020/12/29 02:22:50;;;;;;;0.75;0.73;;;;;;;8.58;75.41;97248.94;4383372;32;34551;-87
2020/12/29 02:25:17;;;;;;;7.20;1.25;;;;;;;8.68;75.36;97267.13;4371751;32;35132;-88
2020/12/29 02:27:49;;;;;;;1.42;1.33;;;;;;;8.34;76.58;97277.69;4371853;32;33929;-86
2020/12/29 02:30:17;;;;;;;0.32;0.32;;;;;;;7.96;78.06;97300.09;4371568;32;32629;-86
2020/12/29 02:32:44;;;;;;;1.08;0.77;;;;;;;8.26;76.97;97301.66;4371855;32;34472;-86
2020/12/29 02:35:15;;;;;;;0.30;0.30;;;;;;;8.23;76.70;97299.38;4371594;32;33810;-85
2020/12/29 02:37:43;;;;;;;0.75;0.22;;;;;;;8.24;76.76;97285.13;4371709;32;32911;-86
2020/12/29 02:40:10;;;;;;;;;;;;;;;8.34;76.34;97295.37;4359860;32;33488;-87
2020/12/29 02:42:38;;;;;;;0.62;0.62;;;;;;;8.20;76.33;97298.94;4371580;32;34178;-85
2020/12/29 02:45:07;;;;;;;0.75;0.73;;;;;;;8.38;75.92;97301.97;4378263;32;34284;-88
2020/12/29 02:47:34;;;;;;;0.43;0.30;;;;;;;8.04;76.84;97307.94;4384164;32;32002;-85
2020/12/29 02:50:01;;;;;;;1.55;1.05;;;;;;;8.01;76.61;97318.87;4371129;32;32927;-85
2020/12/29 02:52:29;;;;;;;0.50;0.50;;;;;;;8.06;76.66;97335.03;4358986;32;34099;-86
2020/12/29 02:54:56;;;;;;;0.50;0.45;;;;;;;8.36;75.58;97343.69;4359098;32;34728;-87
2020/12/29 02:57:23;;;;;;;0.13;0.05;;;;;;;8.39;75.07;97346.78;4359249;32;33154;-86
2020/12/29 02:59:52;;;;;;;0.30;0.30;;;;;;;8.14;75.70;97339.38;4359109;32;33686;-86
2020/12/29 03:02:19;;;;;;;0.40;0.40;;;;;;;8.11;75.50;97348.50;4383038;32;34740;-86
2020/12/29 03:04:46;;;;;;;1.98;0.65;;;;;;;8.24;75.03;97361.09;4359037;32;33214;-86
2020/12/29 03:07:14;;;;;;;0.43;0.43;;;;;;;8.35;75.07;97368.53;4371479;32;33607;-86
2020/12/29 03:09:42;;;;;;;0.25;0.25;;;;;;;8.03;75.55;97385.69;4370802;32;34132;-86
2020/12/29 03:12:15;;;;;;;0.45;0.30;;;;;;;7.96;75.58;97395.41;4383315;32;34841;-86
2020/12/29 03:14:44;;;;;;;0.25;0.17;;;;;;;8.36;74.04;97386.91;4374555;32;34205;-86
2020/12/29 03:17:11;;;;;;;0.00;0.00;;;;;;;7.92;75.58;97386.19;4383311;32;32859;-85
2020/12/29 03:19:38;;;;;;;0.00;0.00;;;;;;;7.82;75.51;97390.16;4383683;32;34444;-87
2020/12/29 03:22:06;;;;;;;0.35;0.35;;;;;;;7.87;74.84;97404.47;4383504;32;34780;-87
2020/12/29 03:24:35;;;;;;;0.00;0.00;;;;;;;7.72;75.04;97408.13;4371379;32;33961;-86
2020/12/29 03:27:03;;;;;;;0.20;0.20;;;;;;;7.51;75.11;97418.63;4383143;32;33276;-86
2020/12/29 03:29:31;;;;;;;0.30;0.30;;;;;;;7.60;74.66;97417.53;4371397;32;33305;-86
2020/12/29 03:31:58;;;;;;;0.00;0.00;;;;;;;7.71;73.75;97417.06;4382423;32;34811;-87
2020/12/29 03:34:27;;;;;;;0.07;0.07;;;;;;;7.77;72.77;97425.09;4371180;32;33853;-86
2020/12/29 03:36:55;;;;;;;3.17;0.20;;;;;;;7.72;72.80;97434.59;4383420;32;32773;-86
2020/12/29 03:39:22;;;;;;;0.00;0.00;;;;;;;7.23;74.43;97430.81;4383396;32;34651;-85
2020/12/29 03:41:49;;;;;;;0.10;0.00;;;;;;;7.39;73.76;97455.31;4383932;32;34717;-87
2020/12/29 03:44:16;;;;;;;0.10;0.10;;;;;;;7.27;73.57;97466.50;4372213;32;33804;-85
2020/12/29 03:46:43;;;;;;;0.20;0.20;;;;;;;7.44;72.46;97466.16;4383405;32;33104;-85
2020/12/29 03:49:10;;;;;;;0.25;0.10;;;;;;;7.48;71.98;97462.16;4370806;32;33206;-85
2020/12/29 03:51:38;;;;;;;0.00;0.00;;;;;;;7.36;71.97;97465.41;4370951;32;34436;-87
2020/12/29 03:54:05;;;;;;;0.08;0.00;;;;;;;7.26;71.93;97488.66;4371524;32;33226;-86
2020/12/29 03:56:33;;;;;;;0.00;0.00;;;;;;;6.96;72.42;97485.09;4371775;32;32650;-86
2020/12/29 03:59:02;;;;;;;0.22;0.22;;;;;;;7.17;71.56;97493.19;4370762;32;33642;-85
2020/12/29 04:01:33;;;;;;;0.00;0.00;;;;;;;7.32;71.03;97506.44;4359039;32;34449;-86
2020/12/29 04:04:03;;;;;;;1.17;0.32;;;;;;;7.23;71.51;97513.63;4370963;32;34604;-85
2020/12/29 04:06:31;;;;;;;0.37;0.37;;;;;;;7.31;70.75;97513.56;4370864;32;33731;-85
2020/12/29 04:08:58;;;;;;;0.20;0.20;;;;;;;7.44;71.05;97520.88;4358834;32;33474;-85
2020/12/29 04:11:26;;;;;;;1.50;0.90;;;;;;;7.59;70.02;97529.66;4358879;32;34123;-85
2020/12/29 04:13:57;;;;;;;0.05;0.05;;;;;;;7.16;71.41;97533.84;4370513;32;34927;-86
2020/12/29 04:16:26;;;;;;;2.85;1.17;;;;;;;7.14;71.63;97543.78;4358753;32;33039;-86
2020/12/29 04:18:53;;;;;;;0.32;0.22;;;;;;;7.06;72.08;97545.66;4358464;32;34357;-85
2020/12/29 04:21:20;;;;;;;0.45;0.32;;;;;;;7.00;72.68;97536.59;4358677;32;34407;-85
2020/12/29 04:23:48;;;;;;;0.10;0.00;;;;;;;7.12;72.31;97555.53;4368337;32;32855;-85
2020/12/29 04:26:19;;;;;;;0.05;0.05;;;;;;;7.16;72.29;97562.13;4356370;32;33432;-86
2020/12/29 04:28:46;;;;;;;0.00;0.00;;;;;;;7.35;71.97;97577.50;4355840;32;32643;-86
2020/12/29 04:31:15;;;;;;;0.10;0.10;;;;;;;7.27;72.55;97577.56;4355952;32;34431;-84
2020/12/29 04:33:42;;;;;;;0.80;0.10;;;;;;;7.02;73.47;97579.56;4355679;32;34158;-85
2020/12/29 04:36:09;;;;;;;0.25;0.15;;;;;;;7.55;71.67;97594.53;4380698;32;33329;-85
2020/12/29 04:38:39;;;;;;;0.37;0.10;;;;;;;7.11;73.43;97593.53;4380321;32;34105;-86
2020/12/29 04:41:06;;;;;;;0.03;0.03;;;;;;;7.24;73.05;97602.53;4380625;32;34204;-86
2020/12/29 04:43:35;;;;;;;0.10;0.10;;;;;;;7.37;72.45;97610.69;4343861;32;33919;-85
2020/12/29 04:46:05;;;;;;;0.15;0.15;;;;;;;6.97;73.26;97623.34;4355760;32;31180;-86
2020/12/29 04:48:33;;;;;;;0.00;0.00;;;;;;;6.85;74.25;97628.22;4355527;32;32286;-85
2020/12/29 04:51:08;;;;;;;0.00;0.00;;;;;;;7.09;73.12;97641.28;4355586;32;35644;-87
2020/12/29 04:53:36;;;;;;;2.85;0.30;;;;;;;6.98;73.72;97648.81;4355734;32;33693;-85
2020/12/29 04:56:08;;;;;;;0.20;0.10;;;;;;;7.11;73.37;97654.34;4343428;32;33049;-84
2020/12/29 04:58:36;;;;;;;0.00;0.00;;;;;;;7.04;73.71;97664.81;4355729;32;33241;-86
2020/12/29 05:01:08;;;;;;;0.08;0.08;;;;;;;6.97;74.04;97663.00;4349172;32;35802;-85
2020/12/29 05:03:43;;;;;;;0.10;0.10;;;;;;;7.27;72.71;97670.94;4370061;32;33838;-86
2020/12/29 05:06:14;;;;;;;0.20;0.17;;;;;;;6.87;74.19;97668.53;4370944;32;33910;-85
2020/12/29 05:08:47;;;;;;;0.00;0.00;;;;;;;7.01;74.03;97696.03;4382645;32;33540;-85
2020/12/29 05:11:16;;;;;;;0.73;0.40;;;;;;;7.16;73.41;97691.69;4370716;32;35630;-85
2020/12/29 05:13:45;;;;;;;0.32;0.17;;;;;;;7.12;73.16;97709.72;4370530;32;32504;-85
2020/12/29 05:16:12;;;;;;;0.00;0.00;;;;;;;6.88;74.30;97709.00;4355114;32;32245;-85
2020/12/29 05:18:40;;;;;;;0.00;0.00;;;;;;;7.07;73.48;97719.97;4367562;32;33608;-86
2020/12/29 05:21:08;;;;;;;0.10;0.10;;;;;;;6.96;73.77;97730.09;4355341;32;34382;-86
2020/12/29 05:23:36;;;;;;;2.45;2.17;;;;;;;6.98;73.53;97736.84;4365343;32;34052;-86
2020/12/29 05:26:04;;;;;;;0.00;0.00;;;;;;;7.00;73.68;97737.50;4370510;32;33420;-85
2020/12/29 05:28:32;;;;;;;0.20;0.00;;;;;;;7.19;72.81;97742.38;4371555;32;33820;-85
2020/12/29 05:31:01;;;;;;;;;;;;;;;7.30;72.35;97741.16;4372234;32;34466;-84
2020/12/29 05:33:28;;;;;;;0.10;0.00;;;;;;;7.10;73.42;97748.69;4382485;32;34094;-85
2020/12/29 05:35:59;;;;;;;0.00;0.00;;;;;;;7.13;72.89;97758.09;4357753;32;32537;-86
2020/12/29 05:38:27;;;;;;;0.00;0.00;;;;;;;6.98;73.47;97765.13;4370118;32;34529;-85
2020/12/29 05:40:55;;;;;;;0.37;0.37;;;;;;;7.00;73.80;97776.34;4357941;32;34558;-85
2020/12/29 05:43:27;;;;;;;0.20;0.20;;;;;;;7.13;73.28;97790.66;4382097;32;33901;-85
2020/12/29 05:46:02;;;;;;;0.80;0.80;;;;;;;7.39;72.32;97800.97;4367004;32;34145;-86
2020/12/29 05:48:29;;;;;;;0.80;0.62;;;;;;;7.17;72.65;97805.19;4367042;32;32829;-86
2020/12/29 05:51:00;;;;;;;0.00;0.00;;;;;;;7.20;72.51;97812.81;4354998;32;34531;-87
2020/12/29 05:53:29;;;;;;;0.65;0.65;;;;;;;7.06;72.75;97824.06;4354873;32;33864;-86
2020/12/29 05:55:58;;;;;;;0.00;0.00;;;;;;;7.02;73.29;97829.88;4356272;32;33660;-86
2020/12/29 05:58:26;;;;;;;0.00;0.00;;;;;;;6.85;73.70;97839.66;4356650;32;32263;-88
2020/12/29 06:00:55;;;;;;;0.28;0.28;;;;;;;6.86;73.93;97836.03;4368725;32;34650;-85
2020/12/29 06:03:23;;;;;;;;;;;;;;;7.22;72.41;97845.19;4357379;32;35655;-86
2020/12/29 06:05:50;;;;;;;0.88;0.10;;;;;;;7.33;71.88;97855.38;4356894;32;32972;-84
2020/12/29 06:08:19;;;;;;;0.10;0.10;;;;;;;7.53;70.77;97861.06;4357032;32;33341;-83
2020/12/29 06:10:58;;;;;;;2.35;0.57;;;;;;;7.06;72.32;97862.88;4369285;32;34011;-84
2020/12/29 06:13:27;;;;;;;5.45;3.15;;;;;;;7.29;71.69;97866.47;4357038;32;34044;-84
2020/12/29 06:15:58;;;;;;;0.70;0.70;;;;;;;7.78;69.54;97878.50;4381121;32;34208;-85
2020/12/29 06:18:34;;;;;;;0.75;0.75;;;;;;;7.69;69.91;97875.09;4370964;32;33437;-86
2020/12/29 06:21:06;;;;;;;0.60;0.55;;;;;;;7.88;69.02;97872.00;4384457;32;35788;-85
2020/12/29 06:23:46;;;;;;;0.20;0.20;;;;;;;7.56;69.77;97889.84;4371469;32;35051;-85
2020/12/29 06:26:32;;;;;;;0.43;0.35;;;;;;;7.11;71.16;97893.16;4360787;32;32823;-86
2020/12/29 06:29:02;;;;;;;0.13;0.13;;;;;;;7.42;69.57;97901.97;4359730;32;33026;-86
2020/12/29 06:31:30;;;;;;;4.65;0.75;;;;;;;7.29;70.14;97900.84;4384328;32;35815;-85
2020/12/29 06:34:06;;;;;;;0.03;0.03;;;;;;;7.47;69.48;97912.06;4383200;32;33148;-88
2020/12/29 06:36:39;;;;;;;1.55;0.30;;;;;;;7.92;67.89;97912.19;4370477;32;33113;-86
2020/12/29 06:39:07;;;;;;;0.37;0.20;;;;;;;8.20;66.53;97926.66;4383718;32;34597;-88
2020/12/29 06:41:35;;;;;;;0.03;0.03;;;;;;;8.44;65.24;97935.25;4371309;32;35516;-85
2020/12/29 06:44:03;;;;;;;0.00;0.00;;;;;;;8.71;63.63;97940.84;4370568;32;33841;-85
2020/12/29 06:46:31;;;;;;;;;;;;;;;8.61;64.11;97944.75;4356920;32;32219;-86
2020/12/29 06:49:18;;;;;;;0.25;0.25;;;;;;;8.43;64.09;97952.97;4368903;32;33688;-85
2020/12/29 06:52:14;;;;;;;0.52;0.52;;;;;;;8.18;64.79;97963.00;4345383;32;33760;-85
2020/12/29 06:54:52;;;;;;;0.30;0.30;;;;;;;8.01;65.33;97958.81;4354049;32;33607;-86
2020/12/29 06:57:35;;;;;;;6.80;4.87;;;;;;;7.71;67.12;97980.75;4353713;32;34473;-85
2020/12/29 07:00:07;;;;;;;1.70;1.55;;;;;;;7.15;69.15;97983.50;4356321;32;34254;-86
2020/12/29 07:02:40;;;;;;;2.03;1.02;;;;;;;7.43;67.42;97996.22;4342727;32;34183;-87
2020/12/29 07:05:24;;;;;;;0.25;0.25;;;;;;;7.02;69.62;97996.41;4343868;32;33096;-85
2020/12/29 07:08:08;;;;;;;0.00;0.00;;;;;;;7.29;68.32;97998.72;4344512;32;32301;-85
2020/12/29 07:10:37;;;;;;;0.75;0.47;;;;;;;6.98;70.09;97993.28;4368718;32;34381;-86
2020/12/29 07:13:16;;;;;;;11.75;0.75;;;;;;;6.83;71.14;98007.31;4368430;32;35101;-85
2020/12/29 07:15:53;;;;;;;0.17;0.17;;;;;;;7.21;69.72;98012.78;4367640;32;33676;-84
2020/12/29 07:18:25;;;;;;;0.10;0.10;;;;;;;6.92;70.31;98024.84;4375899;32;32925;-85
2020/12/29 07:20:58;;;;;;;0.20;0.15;;;;;;;7.27;69.13;98035.09;4359027;32;34037;-85
2020/12/29 07:23:29;;;;;;;0.65;0.52;;;;;;;7.04;69.75;98039.38;4371449;32;34553;-86
2020/12/29 07:26:00;;;;;;;0.20;0.20;;;;;;;6.99;70.08;98042.50;4358826;32;34416;-85
2020/12/29 07:28:29;;;;;;;0.47;0.47;;;;;;;6.91;70.09;98045.13;4358730;32;33639;-84
2020/12/29 07:31:00;;;;;;;1.65;1.12;;;;;;;7.25;69.10;98050.28;4371606;32;33208;-85
2020/12/29 07:33:28;;;;;;;0.47;0.25;;;;;;;7.60;67.65;98052.56;4383217;32;34699;-85
2020/12/29 07:35:58;;;;;;;1.65;0.70;;;;;;;7.54;67.81;98069.12;4371075;32;34368;-85
2020/12/29 07:38:26;;;;;;;0.20;0.20;;;;;;;7.80;66.99;98067.94;4383486;32;33693;-85
2020/12/29 07:40:54;;;;;;;1.87;0.47;;;;;;;8.15;65.43;98058.72;4383406;32;34157;-85
2020/12/29 07:43:22;;;;;;;;;;;;;;;8.21;65.23;98074.78;4359312;32;34837;-85
2020/12/29 07:45:49;;;;;;;0.40;0.40;;;;;;;8.24;65.00;98084.22;4395925;32;34606;-84
2020/12/29 07:48:16;;;;;;;0.62;0.62;;;;;;;8.37;64.71;98084.50;4382985;32;33462;-85
2020/12/29 07:50:44;;;;;;;0.45;0.45;;;;;;;8.69;63.61;98088.66;4371009;32;34520;-85
2020/12/29 07:53:12;;;;;;;0.68;0.35;;;;;;;8.73;63.19;98094.44;4382315;32;35262;-86
2020/12/29 07:55:40;;;;;;;0.93;0.70;;;;;;;8.78;63.08;98100.88;4382898;32;35621;-86
2020/12/29 07:58:09;;;;;;;0.85;0.85;;;;;;;8.63;63.63;98102.59;4382887;32;32854;-86
2020/12/29 08:00:39;;;;;;;1.98;1.77;;;;;;;8.35;64.62;98111.19;4382956;32;32417;-86
2020/12/29 08:03:06;;;;;;;1.35;1.05;;;;;;;8.48;64.36;98111.44;4370176;32;33883;-87
2020/12/29 08:05:38;;;;;;;0.40;0.40;;;;;;;8.17;64.65;98117.63;4380855;32;33666;-86
2020/12/29 08:08:09;;;;;;;0.82;0.82;;;;;;;8.62;64.38;98119.50;4386878;32;34392;-89
2020/12/29 08:10:46;;;;;;;0.65;0.57;;;;;;;8.66;63.52;98126.13;4423109;27;33008;-87
2020/12/29 08:13:20;;;;;;;0.52;0.45;;;;;;;8.34;64.71;98122.78;4459112;27;35586;-95
2020/12/29 08:15:54;;;;;;;1.58;0.47;;;;;;;9.00;62.62;98128.44;4335767;33;35033;-92
2020/12/29 08:18:30;;;;;;;0.37;0.37;;;;;;;9.04;61.75;98135.03;4342719;33;33823;-92
2020/12/29 08:20:57;;;;;;;1.02;0.80;;;;;;;8.71;63.94;98147.63;4331315;32;33373;-95
2020/12/29 08:23:29;;;;;;;2.05;0.73;;;;;;;8.97;62.71;98147.34;4344676;32;34411;-94
2020/12/29 08:26:03;;;;;;;0.60;0.60;;;;;;;9.24;60.98;98145.03;4335015;32;33970;-94
2020/12/29 08:28:40;;;;;;;2.67;1.75;;;;;;;9.41;59.94;98149.22;4359077;32;33504;-85
2020/12/29 08:31:08;;;;;;;0.90;0.90;;;;;;;9.02;62.44;98160.91;4343428;32;34330;-86
2020/12/29 08:33:41;;;;;;;0.57;0.50;;;;;;;9.21;61.52;98166.59;4343830;32;35199;-87
2020/12/29 08:36:10;;;;;;;3.12;1.48;;;;;;;9.50;60.84;98164.09;4331160;32;32829;-90
2020/12/29 08:38:41;;;;;;;4.82;1.85;;;;;;;9.82;58.61;98158.50;4343435;32;33843;-87
2020/12/29 08:41:18;;;;;;;1.20;1.17;;;;;;;9.53;60.63;98176.19;4348602;32;33139;-89
2020/12/29 08:43:53;;;;;;;1.15;0.77;;;;;;;9.65;60.14;98182.72;4358389;32;35286;-85
2020/12/29 08:46:23;;;;;;;1.48;1.37;;;;;;;9.63;60.46;98185.56;4355880;32;34822;-85
2020/12/29 08:48:55;;;;;;;1.83;1.73;;;;;;;9.71;60.76;98176.69;4344383;32;33177;-92
2020/12/29 08:51:28;;;;;;;1.23;1.17;;;;;;;9.56;60.68;98184.59;4347250;32;33887;-84
2020/12/29 08:54:09;;;;;;;0.98;0.85;;;;;;;10.03;59.53;98203.03;4365944;32;34781;-85
2020/12/29 08:56:41;;;;;;;1.25;1.15;;;;;;;10.17;58.63;98203.06;4357466;32;33553;-86
2020/12/29 08:59:32;;;;;;;0.80;0.60;;;;;;;10.19;59.11;98201.06;4360314;32;32759;-85
2020/12/29 09:02:04;;;;;;;1.30;1.23;;;;;;;9.99;59.74;98201.69;4370506;32;33759;-85
2020/12/29 09:04:36;;;;;;;4.20;1.00;;;;;;;10.02;59.23;98217.28;4358336;32;34617;-85
2020/12/29 09:07:14;;;;;;;0.10;0.10;;;;;;;10.25;58.22;98212.78;4358000;32;33111;-85
2020/12/29 09:09:52;;;;;;;2.67;1.90;;;;;;;9.64;58.29;98212.94;4358716;32;32181;-86
2020/12/29 09:12:31;;;;;;;1.10;1.05;;;;;;;9.79;59.60;98214.66;4358554;32;33720;-85
2020/12/29 09:15:11;;;;;;;0.80;0.77;;;;;;;10.20;57.70;98228.47;4358015;32;34713;-91
2020/12/29 09:17:42;;;;;;;2.17;0.80;;;;;;;9.33;59.95;98217.44;4371471;32;34317;-86
2020/12/29 09:20:29;;;;;;;1.48;0.32;;;;;;;9.35;59.65;98223.41;4369535;32;33670;-86
2020/12/29 09:23:11;;;;;;;0.90;0.28;;;;;;;9.62;58.15;98220.25;4357556;32;33249;-87
2020/12/29 09:25:43;;;;;;;1.10;0.32;;;;;;;9.74;59.67;98214.34;4370219;32;34284;-87
2020/12/29 09:28:30;;;;;;;0.40;0.40;;;;;;;9.72;59.58;98226.97;4369831;32;33164;-87
2020/12/29 09:31:07;;;;;;;0.40;0.20;;;;;;;9.68;58.87;98227.50;4370605;32;33404;-87
2020/12/29 09:33:37;;;;;;;2.08;1.48;;;;;;;9.09;60.61;98217.56;4372175;32;32656;-87
2020/12/29 09:36:18;;;;;;;0.77;0.55;;;;;;;9.41;60.57;98220.03;4360144;32;34799;-86
2020/12/29 09:38:48;;;;;;;0.22;0.15;;;;;;;9.25;60.83;98228.13;4371848;32;33319;-87
2020/12/29 09:41:16;;;;;;;3.10;0.47;;;;;;;9.56;60.32;98237.69;4371898;32;33433;-87
2020/12/29 09:43:44;;;;;;;1.48;1.12;;;;;;;9.61;60.40;98230.03;4359304;32;33694;-86
2020/12/29 09:46:12;;;;;;;2.92;0.57;;;;;;;10.04;58.87;98229.44;4371992;32;35163;-87
2020/12/29 09:48:42;;;;;;;0.52;0.52;;;;;;;9.95;59.89;98235.78;4359493;32;34172;-87
2020/12/29 09:51:11;;;;;;;2.12;0.57;;;;;;;9.84;60.25;98236.19;4359086;32;31563;-87
2020/12/29 09:53:39;;;;;;;0.75;0.47;;;;;;;10.18;59.35;98233.16;4371847;32;35000;-86
2020/12/29 09:56:06;;;;;;;1.13;0.50;;;;;;;10.32;58.19;98224.38;4384103;32;35179;-87
2020/12/29 09:58:34;;;;;;;0.35;0.35;;;;;;;10.25;59.17;98232.22;4371676;32;33496;-87
2020/12/29 10:01:01;;;;;;;0.05;0.05;;;;;;;10.04;59.98;98236.56;4335111;33;32547;-87
2020/12/29 10:03:32;;;;;;;0.13;0.10;;;;;;;10.44;59.23;98231.72;4350468;32;33714;-87
2020/12/29 10:05:59;;;;;;;2.40;0.52;;;;;;;10.09;59.59;98244.84;4356299;32;34775;-87
2020/12/29 10:08:26;;;;;;;0.60;0.60;;;;;;;10.42;58.68;98247.03;4344385;32;34826;-87
2020/12/29 10:10:53;;;;;;;0.60;0.35;;;;;;;10.47;57.65;98238.50;4356754;32;33084;-87
2020/12/29 10:13:20;;;;;;;1.20;0.85;;;;;;;9.85;59.33;98250.28;4356473;32;34425;-87
2020/12/29 10:15:50;;;;;;;0.55;0.43;;;;;;;9.70;60.26;98250.22;4344325;32;34877;-85
2020/12/29 10:18:17;;;;;;;0.50;0.50;;;;;;;9.39;61.66;98261.88;4366149;32;34726;-88
2020/12/29 10:20:44;;;;;;;3.67;1.05;;;;;;;9.57;60.66;98251.81;4356435;32;33012;-87
2020/12/29 10:23:12;;;;;;;0.20;0.20;;;;;;;9.94;59.61;98263.31;4356597;32;34460;-87
2020/12/29 10:25:39;;;;;;;0.03;0.03;;;;;;;9.87;59.25;98266.88;4356530;32;34560;-87
2020/12/29 10:28:06;;;;;;;1.20;0.40;;;;;;;9.72;59.23;98258.03;4368880;32;34114;-87
2020/12/29 10:30:33;;;;;;;0.30;0.20;;;;;;;10.07;59.31;98254.81;4356856;32;33337;-87
2020/12/29 10:33:01;;;;;;;2.85;1.48;;;;;;;10.23;57.98;98267.97;4369043;32;33451;-87
2020/12/29 10:35:28;;;;;;;2.62;0.98;;;;;;;9.39;61.38;98273.31;4357688;32;35126;-87
2020/12/29 10:37:55;;;;;;;6.73;1.97;;;;;;;9.78;61.29;98284.72;4355767;32;33763;-87
2020/12/29 10:40:22;;;;;;;0.30;0.30;;;;;;;10.15;59.75;98283.97;4354541;32;33995;-87
2020/12/29 10:42:49;;;;;;;0.80;0.52;;;;;;;10.18;59.30;98283.63;4356068;32;35340;-89
2020/12/29 10:45:17;;;;;;;1.15;1.05;;;;;;;10.76;57.68;98279.25;4355683;32;33789;-87
2020/12/29 10:47:44;;;;;;;1.40;0.73;;;;;;;11.01;56.99;98274.50;4355590;32;35006;-88
2020/12/29 10:50:11;;;;;;;0.50;0.50;;;;;;;10.92;57.68;98270.25;4357771;32;33995;-87
2020/12/29 10:52:39;;;;;;;1.60;0.93;;;;;;;10.85;58.15;98272.84;4368060;32;34964;-88
2020/12/29 10:55:08;;;;;;;5.68;3.15;;;;;;;11.17;57.76;98271.66;4344525;32;34896;-88
2020/12/29 10:57:35;;;;;;;1.70;1.45;;;;;;;11.02;58.14;98282.31;4357541;32;35024;-88
2020/12/29 11:00:03;;;;;;;1.73;1.50;;;;;;;10.98;57.56;98294.34;4356217;32;33994;-87
2020/12/29 11:02:31;;;;;;;3.05;1.27;;;;;;;10.94;57.33;98292.22;4356082;32;33886;-88
2020/12/29 11:04:59;;;;;;;1.87;1.25;;;;;;;10.64;58.70;98294.00;4355906;32;34716;-88
2020/12/29 11:07:27;;;;;;;2.92;2.30;;;;;;;10.91;58.10;98284.59;4357057;32;34910;-90
2020/12/29 11:10:23;;;;;;;0.70;0.55;;;;;;;11.09;56.61;98285.03;4347063;32;32701;-89
2020/12/29 11:12:53;;;;;;;4.12;1.05;;;;;;;10.22;59.65;98290.22;4369100;32;33744;-90
2020/12/29 11:15:22;;;;;;;0.40;0.40;;;;;;;10.08;59.96;98285.69;4372726;32;34455;-88
2020/12/29 11:17:56;;;;;;;2.95;0.25;;;;;;;10.65;58.51;98271.72;4359079;32;33926;-88
2020/12/29 11:20:23;;;;;;;0.75;0.52;;;;;;;10.83;57.90;98280.19;4358651;32;34008;-90
2020/12/29 11:22:55;;;;;;;0.80;0.70;;;;;;;10.97;57.87;98276.72;4359186;32;33326;-90
2020/12/29 11:25:32;;;;;;;0.65;0.52;;;;;;;10.60;58.91;98268.78;4358374;32;35151;-90
2020/12/29 11:28:00;;;;;;;0.03;0.03;;;;;;;10.82;57.58;98286.50;4371075;32;33529;-87
2020/12/29 11:30:31;;;;;;;7.72;1.40;;;;;;;10.98;57.76;98281.03;4359405;32;33851;-87
2020/12/29 11:32:58;;;;;;;0.50;0.50;;;;;;;10.89;56.43;98284.78;4346064;32;33670;-88
2020/12/29 11:35:26;;;;;;;0.20;0.00;;;;;;;10.66;56.93;98280.53;4358608;32;34384;-88
2020/12/29 11:37:54;;;;;;;0.28;0.28;;;;;;;10.69;57.33;98278.34;4358404;32;34625;-88
2020/12/29 11:40:22;;;;;;;0.25;0.25;;;;;;;11.22;56.41;98275.41;4358240;32;31882;-89
2020/12/29 11:42:50;;;;;;;0.65;0.65;;;;;;;11.13;55.95;98267.72;4358833;32;33865;-88
2020/12/29 11:45:18;;;;;;;0.00;0.00;;;;;;;10.70;57.25;98268.53;4358100;32;36513;-89
2020/12/29 11:47:48;;;;;;;0.43;0.20;;;;;;;10.59;57.75;98276.94;4358237;32;34495;-89
2020/12/29 11:50:15;;;;;;;0.22;0.03;;;;;;;10.92;57.34;98272.94;4357572;32;32949;-89
2020/12/29 11:52:45;;;;;;;2.72;0.93;;;;;;;10.83;56.74;98282.84;4345338;32;32220;-90
2020/12/29 11:55:16;;;;;;;0.10;0.10;;;;;;;10.97;56.57;98281.19;4370896;32;35308;-89
2020/12/29 11:57:44;;;;;;;0.55;0.10;;;;;;;11.12;55.25;98288.16;4345961;32;34129;-90